SBGL

RIOgaleão – Tom Jobim International Airport

Rio De Janeiro, Brazil
METAR SBGL 220700Z 34005KT 9999 FEW025 21/20 Q1014
Observed Flight Rules
Sep-22 @ 07:00 UTC (56 minutes ago) Visual Flight Rules
Wind Visibility Clouds
340° at 5 knots 10,000+ meters
Temperatures Readings
Current 21°C / 70°F
Dewpoint 20°C / 68°F
Humidity 94%
Altimeter 29.94" Hg
Pressure 1014 hPa
Elevation 6
METAR SBGL 220700Z 34005KT 9999 FEW025 21/20 Q1014
Observed Flight Rules
Sep-22 @ 07:00 UTC
(56 minutes ago)
VFR
Wind Visibility
340° at 5 knots 10,000+ meters
Clouds
Temperature Dewpoint
21°C / 70°F 20°C / 68°F
Humidity Altimeter Pressure
94% 29.94" Hg 1014 hPa